Terminal Aerodrome Forecast
Issued by NWS

Home | Current Version | Previous Version | Graphics & Text | Print | Product List | Glossary On
Versions: 1 2 3 4 5 6 7 8 9 10 11 12 13
068
FTUS45 KGGW 191723
TAFSDY
TAF
KSDY 191723Z 1918/2018 21008KT P6SM BKN120
     FM200600 22008KT P6SM SCT140 WS020/26035KT
     FM201100 23009KT P6SM SCT140
     FM201300 24012KT P6SM BKN130 WS020/27040KT
     FM201700 27019G28KT P6SM BKN130=

USA.gov is the U.S. government's official web portal to all federal, state and local government web resources and services.